sensor_id;sensor_type;location;lat;lon;timestamp;P1;durP1;ratioP1;P2;durP2;ratioP2
29730;SDS011;16639;51.488;0.152;2022-12-08T00:01:28;27.38;;;14.85;;
29730;SDS011;16639;51.488;0.152;2022-12-08T00:03:58;30.00;;;14.07;;
29730;SDS011;16639;51.488;0.152;2022-12-08T00:06:28;32.00;;;16.83;;
29730;SDS011;16639;51.488;0.152;2022-12-08T00:09:16;33.28;;;16.77;;
29730;SDS011;16639;51.488;0.152;2022-12-08T00:12:06;32.38;;;16.25;;
29730;SDS011;16639;51.488;0.152;2022-12-08T00:14:36;28.35;;;17.02;;
29730;SDS011;16639;51.488;0.152;2022-12-08T00:17:05;31.95;;;15.50;;
29730;SDS011;16639;51.488;0.152;2022-12-08T00:19:34;30.40;;;14.60;;
29730;SDS011;16639;51.488;0.152;2022-12-08T00:22:02;34.95;;;15.95;;
29730;SDS011;16639;51.488;0.152;2022-12-08T00:24:32;30.45;;;15.30;;
29730;SDS011;16639;51.488;0.152;2022-12-08T00:27:01;30.20;;;14.88;;
29730;SDS011;16639;51.488;0.152;2022-12-08T00:29:28;29.30;;;15.80;;
29730;SDS011;16639;51.488;0.152;2022-12-08T00:31:56;31.33;;;15.43;;
29730;SDS011;16639;51.488;0.152;2022-12-08T00:34:23;29.02;;;15.98;;
29730;SDS011;16639;51.488;0.152;2022-12-08T00:36:51;31.38;;;16.45;;
29730;SDS011;16639;51.488;0.152;2022-12-08T00:39:18;27.90;;;15.90;;
29730;SDS011;16639;51.488;0.152;2022-12-08T00:41:46;33.17;;;17.17;;
29730;SDS011;16639;51.488;0.152;2022-12-08T00:44:32;30.70;;;15.15;;
29730;SDS011;16639;51.488;0.152;2022-12-08T00:46:59;29.05;;;14.98;;
29730;SDS011;16639;51.488;0.152;2022-12-08T00:49:26;28.42;;;15.95;;
29730;SDS011;16639;51.488;0.152;2022-12-08T00:51:54;32.67;;;16.00;;
29730;SDS011;16639;51.488;0.152;2022-12-08T00:54:21;32.08;;;15.43;;
29730;SDS011;16639;51.488;0.152;2022-12-08T00:56:49;33.45;;;15.48;;
29730;SDS011;16639;51.488;0.152;2022-12-08T00:59:17;30.33;;;15.40;;
29730;SDS011;16639;51.488;0.152;2022-12-08T01:01:45;35.05;;;16.58;;
29730;SDS011;16639;51.488;0.152;2022-12-08T01:04:13;28.33;;;15.48;;
29730;SDS011;16639;51.488;0.152;2022-12-08T01:06:43;28.95;;;14.93;;
29730;SDS011;16639;51.488;0.152;2022-12-08T01:09:11;28.45;;;15.60;;
29730;SDS011;16639;51.488;0.152;2022-12-08T01:11:39;31.92;;;17.60;;
29730;SDS011;16639;51.488;0.152;2022-12-08T01:14:10;29.25;;;15.57;;
29730;SDS011;16639;51.488;0.152;2022-12-08T01:16:38;30.38;;;15.55;;
29730;SDS011;16639;51.488;0.152;2022-12-08T01:19:10;31.35;;;17.42;;
29730;SDS011;16639;51.488;0.152;2022-12-08T01:21:39;25.67;;;15.30;;
29730;SDS011;16639;51.488;0.152;2022-12-08T01:24:18;27.77;;;14.82;;
29730;SDS011;16639;51.488;0.152;2022-12-08T01:26:47;35.60;;;16.55;;
29730;SDS011;16639;51.488;0.152;2022-12-08T01:29:16;35.28;;;16.02;;
29730;SDS011;16639;51.488;0.152;2022-12-08T01:31:44;34.65;;;15.70;;
29730;SDS011;16639;51.488;0.152;2022-12-08T01:34:11;32.08;;;16.33;;
29730;SDS011;16639;51.488;0.152;2022-12-08T01:36:39;35.20;;;17.40;;
29730;SDS011;16639;51.488;0.152;2022-12-08T01:39:09;29.38;;;16.13;;
29730;SDS011;16639;51.488;0.152;2022-12-08T01:41:41;27.30;;;15.32;;
29730;SDS011;16639;51.488;0.152;2022-12-08T01:46:37;35.65;;;15.63;;
29730;SDS011;16639;51.488;0.152;2022-12-08T01:49:21;37.65;;;17.08;;
29730;SDS011;16639;51.488;0.152;2022-12-08T01:54:29;38.15;;;16.20;;
29730;SDS011;16639;51.488;0.152;2022-12-08T01:57:07;33.75;;;15.85;;
29730;SDS011;16639;51.488;0.152;2022-12-08T01:59:40;31.42;;;15.40;;
29730;SDS011;16639;51.488;0.152;2022-12-08T02:02:12;29.88;;;15.57;;
29730;SDS011;16639;51.488;0.152;2022-12-08T02:04:39;32.78;;;15.93;;
29730;SDS011;16639;51.488;0.152;2022-12-08T02:07:07;29.98;;;16.05;;
29730;SDS011;16639;51.488;0.152;2022-12-08T02:09:35;31.10;;;15.90;;
29730;SDS011;16639;51.488;0.152;2022-12-08T02:12:05;33.40;;;16.42;;
29730;SDS011;16639;51.488;0.152;2022-12-08T02:14:34;23.40;;;14.52;;
29730;SDS011;16639;51.488;0.152;2022-12-08T02:17:09;37.28;;;19.05;;
29730;SDS011;16639;51.488;0.152;2022-12-08T02:20:22;36.30;;;16.77;;
29730;SDS011;16639;51.488;0.152;2022-12-08T02:23:05;28.77;;;16.92;;
29730;SDS011;16639;51.488;0.152;2022-12-08T02:26:10;28.83;;;17.65;;
29730;SDS011;16639;51.488;0.152;2022-12-08T02:37:13;22.90;;;15.52;;
29730;SDS011;16639;51.488;0.152;2022-12-08T02:43:17;25.20;;;15.35;;
29730;SDS011;16639;51.488;0.152;2022-12-08T02:48:09;32.75;;;14.80;;
29730;SDS011;16639;51.488;0.152;2022-12-08T02:50:37;30.40;;;15.93;;
29730;SDS011;16639;51.488;0.152;2022-12-08T02:53:04;30.25;;;15.95;;
29730;SDS011;16639;51.488;0.152;2022-12-08T03:06:34;31.00;;;17.58;;
29730;SDS011;16639;51.488;0.152;2022-12-08T03:15:10;28.08;;;15.35;;
29730;SDS011;16639;51.488;0.152;2022-12-08T03:17:42;24.45;;;14.48;;
29730;SDS011;16639;51.488;0.152;2022-12-08T03:20:16;32.10;;;16.50;;
29730;SDS011;16639;51.488;0.152;2022-12-08T03:22:46;26.75;;;15.20;;
29730;SDS011;16639;51.488;0.152;2022-12-08T03:25:16;34.40;;;15.23;;
29730;SDS011;16639;51.488;0.152;2022-12-08T03:27:47;32.85;;;16.30;;
29730;SDS011;16639;51.488;0.152;2022-12-08T03:30:16;31.67;;;16.02;;
29730;SDS011;16639;51.488;0.152;2022-12-08T03:33:03;29.23;;;15.10;;
29730;SDS011;16639;51.488;0.152;2022-12-08T03:35:51;30.48;;;17.08;;
29730;SDS011;16639;51.488;0.152;2022-12-08T03:38:19;28.63;;;16.20;;
29730;SDS011;16639;51.488;0.152;2022-12-08T03:40:48;32.13;;;15.32;;
29730;SDS011;16639;51.488;0.152;2022-12-08T03:43:35;29.63;;;15.85;;
29730;SDS011;16639;51.488;0.152;2022-12-08T03:46:02;30.60;;;15.55;;
29730;SDS011;16639;51.488;0.152;2022-12-08T03:48:30;32.25;;;15.82;;
29730;SDS011;16639;51.488;0.152;2022-12-08T03:50:57;33.22;;;17.25;;
29730;SDS011;16639;51.488;0.152;2022-12-08T03:53:25;31.13;;;16.27;;
29730;SDS011;16639;51.488;0.152;2022-12-08T03:55:52;26.10;;;15.15;;
29730;SDS011;16639;51.488;0.152;2022-12-08T03:58:20;27.05;;;15.30;;
29730;SDS011;16639;51.488;0.152;2022-12-08T04:00:47;35.10;;;15.32;;
29730;SDS011;16639;51.488;0.152;2022-12-08T04:03:15;29.75;;;16.77;;
29730;SDS011;16639;51.488;0.152;2022-12-08T04:05:42;31.55;;;16.15;;
29730;SDS011;16639;51.488;0.152;2022-12-08T04:08:10;31.20;;;15.77;;
29730;SDS011;16639;51.488;0.152;2022-12-08T04:10:38;33.25;;;18.02;;
29730;SDS011;16639;51.488;0.152;2022-12-08T04:13:05;30.55;;;17.30;;
29730;SDS011;16639;51.488;0.152;2022-12-08T04:15:32;33.63;;;17.13;;
29730;SDS011;16639;51.488;0.152;2022-12-08T04:18:00;39.13;;;16.80;;
29730;SDS011;16639;51.488;0.152;2022-12-08T04:20:27;27.83;;;16.13;;
29730;SDS011;16639;51.488;0.152;2022-12-08T04:22:55;33.35;;;15.50;;
29730;SDS011;16639;51.488;0.152;2022-12-08T04:25:22;31.83;;;16.88;;
29730;SDS011;16639;51.488;0.152;2022-12-08T04:27:49;31.25;;;17.30;;
29730;SDS011;16639;51.488;0.152;2022-12-08T04:30:17;23.27;;;14.20;;
29730;SDS011;16639;51.488;0.152;2022-12-08T04:32:44;27.33;;;15.65;;
29730;SDS011;16639;51.488;0.152;2022-12-08T04:35:13;29.42;;;16.67;;
29730;SDS011;16639;51.488;0.152;2022-12-08T04:37:41;32.50;;;16.08;;
29730;SDS011;16639;51.488;0.152;2022-12-08T04:40:10;30.95;;;15.10;;
29730;SDS011;16639;51.488;0.152;2022-12-08T04:42:41;27.10;;;15.25;;
29730;SDS011;16639;51.488;0.152;2022-12-08T04:45:09;38.42;;;15.85;;
29730;SDS011;16639;51.488;0.152;2022-12-08T04:47:36;32.00;;;16.15;;
29730;SDS011;16639;51.488;0.152;2022-12-08T04:50:07;31.60;;;16.40;;
29730;SDS011;16639;51.488;0.152;2022-12-08T04:52:45;24.90;;;14.60;;
29730;SDS011;16639;51.488;0.152;2022-12-08T04:55:13;28.23;;;15.25;;
29730;SDS011;16639;51.488;0.152;2022-12-08T04:57:40;26.10;;;15.05;;
29730;SDS011;16639;51.488;0.152;2022-12-08T05:00:07;22.50;;;14.73;;
29730;SDS011;16639;51.488;0.152;2022-12-08T05:02:36;27.98;;;15.32;;
29730;SDS011;16639;51.488;0.152;2022-12-08T05:05:04;26.58;;;15.40;;
29730;SDS011;16639;51.488;0.152;2022-12-08T05:07:32;31.52;;;16.75;;
29730;SDS011;16639;51.488;0.152;2022-12-08T05:09:59;27.63;;;16.05;;
29730;SDS011;16639;51.488;0.152;2022-12-08T05:12:27;34.47;;;15.68;;
29730;SDS011;16639;51.488;0.152;2022-12-08T05:14:54;25.67;;;14.40;;
29730;SDS011;16639;51.488;0.152;2022-12-08T05:17:21;22.08;;;14.65;;
29730;SDS011;16639;51.488;0.152;2022-12-08T05:19:49;29.27;;;14.93;;
29730;SDS011;16639;51.488;0.152;2022-12-08T05:22:16;28.88;;;15.68;;
29730;SDS011;16639;51.488;0.152;2022-12-08T05:24:43;28.38;;;15.88;;
29730;SDS011;16639;51.488;0.152;2022-12-08T05:27:13;30.50;;;15.55;;
29730;SDS011;16639;51.488;0.152;2022-12-08T05:29:41;28.02;;;15.05;;
29730;SDS011;16639;51.488;0.152;2022-12-08T05:32:08;28.42;;;14.98;;
29730;SDS011;16639;51.488;0.152;2022-12-08T05:34:36;28.23;;;16.35;;
29730;SDS011;16639;51.488;0.152;2022-12-08T05:37:03;28.25;;;15.45;;
29730;SDS011;16639;51.488;0.152;2022-12-08T05:39:30;28.67;;;16.42;;
29730;SDS011;16639;51.488;0.152;2022-12-08T05:41:58;30.35;;;15.80;;
29730;SDS011;16639;51.488;0.152;2022-12-08T05:44:25;30.25;;;15.85;;
29730;SDS011;16639;51.488;0.152;2022-12-08T05:46:52;29.38;;;16.05;;
29730;SDS011;16639;51.488;0.152;2022-12-08T05:49:20;32.20;;;16.15;;
29730;SDS011;16639;51.488;0.152;2022-12-08T05:51:47;29.10;;;15.93;;
29730;SDS011;16639;51.488;0.152;2022-12-08T05:54:14;24.80;;;16.33;;
29730;SDS011;16639;51.488;0.152;2022-12-08T05:56:42;30.40;;;17.38;;
29730;SDS011;16639;51.488;0.152;2022-12-08T05:59:09;31.60;;;17.75;;
29730;SDS011;16639;51.488;0.152;2022-12-08T06:01:37;29.17;;;17.75;;
29730;SDS011;16639;51.488;0.152;2022-12-08T06:04:05;31.38;;;16.95;;
29730;SDS011;16639;51.488;0.152;2022-12-08T06:06:34;29.17;;;17.58;;
29730;SDS011;16639;51.488;0.152;2022-12-08T06:09:05;26.98;;;16.63;;
29730;SDS011;16639;51.488;0.152;2022-12-08T06:11:35;47.38;;;18.42;;
29730;SDS011;16639;51.488;0.152;2022-12-08T06:14:02;37.38;;;18.42;;
29730;SDS011;16639;51.488;0.152;2022-12-08T06:16:30;31.80;;;17.60;;
29730;SDS011;16639;51.488;0.152;2022-12-08T06:18:57;37.60;;;18.02;;
29730;SDS011;16639;51.488;0.152;2022-12-08T06:21:25;38.55;;;17.30;;
29730;SDS011;16639;51.488;0.152;2022-12-08T06:23:52;32.25;;;17.50;;
29730;SDS011;16639;51.488;0.152;2022-12-08T06:26:20;28.13;;;16.67;;
29730;SDS011;16639;51.488;0.152;2022-12-08T06:28:48;29.05;;;17.48;;
29730;SDS011;16639;51.488;0.152;2022-12-08T06:31:23;26.45;;;16.80;;
29730;SDS011;16639;51.488;0.152;2022-12-08T06:33:52;27.45;;;17.15;;
29730;SDS011;16639;51.488;0.152;2022-12-08T06:36:21;35.67;;;17.30;;
29730;SDS011;16639;51.488;0.152;2022-12-08T06:38:51;27.58;;;16.70;;
29730;SDS011;16639;51.488;0.152;2022-12-08T06:41:18;33.95;;;18.05;;
29730;SDS011;16639;51.488;0.152;2022-12-08T06:43:46;29.15;;;16.33;;
29730;SDS011;16639;51.488;0.152;2022-12-08T06:46:14;31.17;;;16.63;;
29730;SDS011;16639;51.488;0.152;2022-12-08T06:48:44;29.92;;;18.08;;
29730;SDS011;16639;51.488;0.152;2022-12-08T06:51:13;27.65;;;16.95;;
29730;SDS011;16639;51.488;0.152;2022-12-08T06:53:43;34.45;;;17.90;;
29730;SDS011;16639;51.488;0.152;2022-12-08T06:56:13;34.35;;;18.42;;
29730;SDS011;16639;51.488;0.152;2022-12-08T06:58:41;33.60;;;20.13;;
29730;SDS011;16639;51.488;0.152;2022-12-08T07:03:45;37.17;;;18.65;;
29730;SDS011;16639;51.488;0.152;2022-12-08T07:06:14;32.10;;;17.90;;
29730;SDS011;16639;51.488;0.152;2022-12-08T07:08:43;38.20;;;19.55;;
29730;SDS011;16639;51.488;0.152;2022-12-08T07:11:11;35.92;;;19.05;;
29730;SDS011;16639;51.488;0.152;2022-12-08T07:13:46;36.75;;;19.92;;
29730;SDS011;16639;51.488;0.152;2022-12-08T07:16:14;37.42;;;20.65;;
29730;SDS011;16639;51.488;0.152;2022-12-08T07:18:41;37.45;;;18.95;;
29730;SDS011;16639;51.488;0.152;2022-12-08T07:21:10;36.63;;;19.05;;
29730;SDS011;16639;51.488;0.152;2022-12-08T07:23:39;36.92;;;18.83;;
29730;SDS011;16639;51.488;0.152;2022-12-08T07:26:08;34.05;;;18.73;;
29730;SDS011;16639;51.488;0.152;2022-12-08T07:28:38;38.65;;;19.48;;
29730;SDS011;16639;51.488;0.152;2022-12-08T07:31:07;32.05;;;17.45;;
29730;SDS011;16639;51.488;0.152;2022-12-08T07:33:51;32.75;;;18.95;;
29730;SDS011;16639;51.488;0.152;2022-12-08T07:36:20;31.35;;;17.27;;
29730;SDS011;16639;51.488;0.152;2022-12-08T07:38:48;31.00;;;17.25;;
29730;SDS011;16639;51.488;0.152;2022-12-08T07:41:16;32.90;;;18.25;;
29730;SDS011;16639;51.488;0.152;2022-12-08T07:43:49;34.42;;;17.73;;
29730;SDS011;16639;51.488;0.152;2022-12-08T07:46:18;36.63;;;18.67;;
29730;SDS011;16639;51.488;0.152;2022-12-08T07:48:47;31.75;;;18.73;;
29730;SDS011;16639;51.488;0.152;2022-12-08T07:51:15;33.95;;;17.10;;
29730;SDS011;16639;51.488;0.152;2022-12-08T07:53:43;33.70;;;17.60;;
29730;SDS011;16639;51.488;0.152;2022-12-08T07:56:19;30.38;;;16.55;;
29730;SDS011;16639;51.488;0.152;2022-12-08T07:58:47;29.23;;;16.67;;
29730;SDS011;16639;51.488;0.152;2022-12-08T08:01:22;26.92;;;16.88;;
29730;SDS011;16639;51.488;0.152;2022-12-08T08:03:50;28.02;;;16.25;;
29730;SDS011;16639;51.488;0.152;2022-12-08T08:06:18;37.70;;;17.15;;
29730;SDS011;16639;51.488;0.152;2022-12-08T08:08:45;27.67;;;16.48;;
29730;SDS011;16639;51.488;0.152;2022-12-08T08:11:12;31.20;;;17.15;;
29730;SDS011;16639;51.488;0.152;2022-12-08T08:13:47;35.03;;;17.83;;
29730;SDS011;16639;51.488;0.152;2022-12-08T08:16:16;30.65;;;17.90;;
29730;SDS011;16639;51.488;0.152;2022-12-08T08:18:45;36.28;;;16.63;;
29730;SDS011;16639;51.488;0.152;2022-12-08T08:21:14;28.08;;;15.35;;
29730;SDS011;16639;51.488;0.152;2022-12-08T08:24:03;46.22;;;19.58;;
29730;SDS011;16639;51.488;0.152;2022-12-08T08:26:30;30.75;;;15.55;;
29730;SDS011;16639;51.488;0.152;2022-12-08T08:28:58;36.08;;;19.10;;
29730;SDS011;16639;51.488;0.152;2022-12-08T08:31:25;29.15;;;16.80;;
29730;SDS011;16639;51.488;0.152;2022-12-08T08:33:53;33.30;;;16.42;;
29730;SDS011;16639;51.488;0.152;2022-12-08T08:36:21;29.67;;;16.30;;
29730;SDS011;16639;51.488;0.152;2022-12-08T08:38:49;29.02;;;16.70;;
29730;SDS011;16639;51.488;0.152;2022-12-08T08:41:17;27.92;;;16.15;;
29730;SDS011;16639;51.488;0.152;2022-12-08T08:43:44;29.17;;;15.57;;
29730;SDS011;16639;51.488;0.152;2022-12-08T08:46:12;29.58;;;15.90;;
29730;SDS011;16639;51.488;0.152;2022-12-08T08:48:39;33.78;;;17.95;;
29730;SDS011;16639;51.488;0.152;2022-12-08T08:51:10;32.60;;;18.10;;
29730;SDS011;16639;51.488;0.152;2022-12-08T08:53:40;39.55;;;18.33;;
29730;SDS011;16639;51.488;0.152;2022-12-08T08:56:11;42.50;;;18.60;;
29730;SDS011;16639;51.488;0.152;2022-12-08T08:58:40;32.17;;;16.00;;
29730;SDS011;16639;51.488;0.152;2022-12-08T09:01:08;35.53;;;17.00;;
29730;SDS011;16639;51.488;0.152;2022-12-08T09:03:40;31.05;;;18.75;;
29730;SDS011;16639;51.488;0.152;2022-12-08T09:06:07;38.42;;;18.92;;
29730;SDS011;16639;51.488;0.152;2022-12-08T09:08:35;33.65;;;17.15;;
29730;SDS011;16639;51.488;0.152;2022-12-08T09:11:02;33.70;;;18.23;;
29730;SDS011;16639;51.488;0.152;2022-12-08T09:13:29;38.17;;;19.17;;
29730;SDS011;16639;51.488;0.152;2022-12-08T09:15:58;31.88;;;19.08;;
29730;SDS011;16639;51.488;0.152;2022-12-08T09:18:32;37.15;;;19.42;;
29730;SDS011;16639;51.488;0.152;2022-12-08T09:21:08;37.33;;;18.05;;
29730;SDS011;16639;51.488;0.152;2022-12-08T09:23:38;36.72;;;19.17;;
29730;SDS011;16639;51.488;0.152;2022-12-08T09:26:06;38.85;;;19.25;;
29730;SDS011;16639;51.488;0.152;2022-12-08T09:28:34;34.95;;;18.55;;
29730;SDS011;16639;51.488;0.152;2022-12-08T09:31:01;32.10;;;18.60;;
29730;SDS011;16639;51.488;0.152;2022-12-08T09:33:29;36.95;;;18.98;;
29730;SDS011;16639;51.488;0.152;2022-12-08T09:36:00;34.10;;;17.08;;
29730;SDS011;16639;51.488;0.152;2022-12-08T09:38:29;35.30;;;18.88;;
29730;SDS011;16639;51.488;0.152;2022-12-08T09:40:57;32.30;;;17.00;;
29730;SDS011;16639;51.488;0.152;2022-12-08T09:43:34;35.60;;;17.35;;
29730;SDS011;16639;51.488;0.152;2022-12-08T09:46:14;37.60;;;18.55;;
29730;SDS011;16639;51.488;0.152;2022-12-08T09:48:49;29.50;;;17.88;;
29730;SDS011;16639;51.488;0.152;2022-12-08T09:51:22;36.15;;;19.30;;
29730;SDS011;16639;51.488;0.152;2022-12-08T09:53:53;31.83;;;17.05;;
29730;SDS011;16639;51.488;0.152;2022-12-08T09:56:26;27.30;;;18.27;;
29730;SDS011;16639;51.488;0.152;2022-12-08T09:58:59;23.38;;;15.25;;
29730;SDS011;16639;51.488;0.152;2022-12-08T10:01:47;28.67;;;16.00;;
29730;SDS011;16639;51.488;0.152;2022-12-08T10:13:07;30.13;;;16.15;;
29730;SDS011;16639;51.488;0.152;2022-12-08T10:18:33;30.27;;;14.20;;
29730;SDS011;16639;51.488;0.152;2022-12-08T10:21:12;28.88;;;14.35;;
29730;SDS011;16639;51.488;0.152;2022-12-08T10:23:43;28.30;;;14.32;;
29730;SDS011;16639;51.488;0.152;2022-12-08T10:26:16;28.67;;;14.32;;
29730;SDS011;16639;51.488;0.152;2022-12-08T10:28:45;31.00;;;14.70;;
29730;SDS011;16639;51.488;0.152;2022-12-08T10:31:14;25.00;;;15.73;;
29730;SDS011;16639;51.488;0.152;2022-12-08T10:33:43;27.23;;;15.32;;
29730;SDS011;16639;51.488;0.152;2022-12-08T10:36:13;31.17;;;15.25;;
29730;SDS011;16639;51.488;0.152;2022-12-08T10:38:41;26.02;;;13.88;;
29730;SDS011;16639;51.488;0.152;2022-12-08T10:43:43;22.58;;;13.93;;
29730;SDS011;16639;51.488;0.152;2022-12-08T10:46:25;19.42;;;12.23;;
29730;SDS011;16639;51.488;0.152;2022-12-08T10:48:55;24.95;;;13.63;;
29730;SDS011;16639;51.488;0.152;2022-12-08T10:51:30;24.83;;;12.98;;
29730;SDS011;16639;51.488;0.152;2022-12-08T10:57:04;24.73;;;13.98;;
29730;SDS011;16639;51.488;0.152;2022-12-08T10:59:32;23.60;;;13.60;;
29730;SDS011;16639;51.488;0.152;2022-12-08T11:02:00;21.83;;;14.25;;
29730;SDS011;16639;51.488;0.152;2022-12-08T11:04:33;20.35;;;12.98;;
29730;SDS011;16639;51.488;0.152;2022-12-08T11:07:04;24.08;;;13.77;;
29730;SDS011;16639;51.488;0.152;2022-12-08T11:12:14;21.55;;;13.45;;
29730;SDS011;16639;51.488;0.152;2022-12-08T11:14:45;24.95;;;13.75;;
29730;SDS011;16639;51.488;0.152;2022-12-08T11:19:57;19.55;;;12.77;;
29730;SDS011;16639;51.488;0.152;2022-12-08T11:22:36;27.10;;;14.02;;
29730;SDS011;16639;51.488;0.152;2022-12-08T11:27:37;25.08;;;13.60;;
29730;SDS011;16639;51.488;0.152;2022-12-08T11:32:47;25.35;;;13.70;;
29730;SDS011;16639;51.488;0.152;2022-12-08T11:35:27;26.83;;;13.45;;
29730;SDS011;16639;51.488;0.152;2022-12-08T11:38:21;24.65;;;12.90;;
29730;SDS011;16639;51.488;0.152;2022-12-08T11:40:58;20.15;;;11.57;;
29730;SDS011;16639;51.488;0.152;2022-12-08T11:46:22;25.50;;;12.55;;
29730;SDS011;16639;51.488;0.152;2022-12-08T11:49:01;21.38;;;12.07;;
29730;SDS011;16639;51.488;0.152;2022-12-08T11:54:31;18.95;;;13.88;;
29730;SDS011;16639;51.488;0.152;2022-12-08T11:57:10;18.50;;;11.95;;
29730;SDS011;16639;51.488;0.152;2022-12-08T11:59:43;26.27;;;13.30;;
29730;SDS011;16639;51.488;0.152;2022-12-08T12:02:19;20.38;;;13.02;;
29730;SDS011;16639;51.488;0.152;2022-12-08T12:18:22;20.70;;;10.57;;
29730;SDS011;16639;51.488;0.152;2022-12-08T12:20:58;26.90;;;12.57;;
29730;SDS011;16639;51.488;0.152;2022-12-08T12:23:36;18.35;;;10.73;;
29730;SDS011;16639;51.488;0.152;2022-12-08T12:26:07;17.80;;;10.52;;
29730;SDS011;16639;51.488;0.152;2022-12-08T12:29:05;22.80;;;10.40;;
29730;SDS011;16639;51.488;0.152;2022-12-08T12:31:42;21.35;;;12.43;;
29730;SDS011;16639;51.488;0.152;2022-12-08T12:34:16;24.48;;;11.60;;
29730;SDS011;16639;51.488;0.152;2022-12-08T12:39:20;18.75;;;8.48;;
29730;SDS011;16639;51.488;0.152;2022-12-08T12:42:11;16.27;;;8.18;;
29730;SDS011;16639;51.488;0.152;2022-12-08T12:47:47;22.55;;;10.75;;
29730;SDS011;16639;51.488;0.152;2022-12-08T12:53:04;19.10;;;10.45;;
29730;SDS011;16639;51.488;0.152;2022-12-08T12:58:18;13.77;;;8.63;;
29730;SDS011;16639;51.488;0.152;2022-12-08T13:00:45;17.50;;;8.38;;
29730;SDS011;16639;51.488;0.152;2022-12-08T13:03:13;17.40;;;9.00;;
29730;SDS011;16639;51.488;0.152;2022-12-08T13:05:47;11.82;;;7.72;;
29730;SDS011;16639;51.488;0.152;2022-12-08T13:08:24;15.23;;;8.30;;
29730;SDS011;16639;51.488;0.152;2022-12-08T13:10:58;15.45;;;8.43;;
29730;SDS011;16639;51.488;0.152;2022-12-08T13:13:31;16.50;;;8.20;;
29730;SDS011;16639;51.488;0.152;2022-12-08T13:16:02;20.08;;;7.85;;
29730;SDS011;16639;51.488;0.152;2022-12-08T13:18:48;18.08;;;8.30;;
29730;SDS011;16639;51.488;0.152;2022-12-08T13:21:18;16.25;;;9.88;;
29730;SDS011;16639;51.488;0.152;2022-12-08T13:26:48;17.40;;;7.55;;
29730;SDS011;16639;51.488;0.152;2022-12-08T13:31:48;20.33;;;8.70;;
29730;SDS011;16639;51.488;0.152;2022-12-08T13:34:39;12.90;;;8.27;;
29730;SDS011;16639;51.488;0.152;2022-12-08T13:37:18;13.43;;;6.65;;
29730;SDS011;16639;51.488;0.152;2022-12-08T13:39:52;10.75;;;6.55;;
29730;SDS011;16639;51.488;0.152;2022-12-08T13:45:23;16.05;;;7.35;;
29730;SDS011;16639;51.488;0.152;2022-12-08T13:48:27;13.23;;;6.95;;
29730;SDS011;16639;51.488;0.152;2022-12-08T13:51:22;24.38;;;7.70;;
29730;SDS011;16639;51.488;0.152;2022-12-08T13:54:20;14.88;;;7.45;;
29730;SDS011;16639;51.488;0.152;2022-12-08T13:57:29;19.77;;;7.43;;
29730;SDS011;16639;51.488;0.152;2022-12-08T14:00:06;15.73;;;7.40;;
29730;SDS011;16639;51.488;0.152;2022-12-08T14:02:56;10.18;;;6.28;;
29730;SDS011;16639;51.488;0.152;2022-12-08T14:05:36;11.55;;;5.80;;
29730;SDS011;16639;51.488;0.152;2022-12-08T14:08:29;14.63;;;5.85;;
29730;SDS011;16639;51.488;0.152;2022-12-08T14:14:03;17.88;;;6.22;;
29730;SDS011;16639;51.488;0.152;2022-12-08T14:16:54;17.48;;;6.32;;
29730;SDS011;16639;51.488;0.152;2022-12-08T14:19:25;19.00;;;6.25;;
29730;SDS011;16639;51.488;0.152;2022-12-08T14:21:55;16.02;;;6.93;;
29730;SDS011;16639;51.488;0.152;2022-12-08T14:24:44;16.92;;;6.65;;
29730;SDS011;16639;51.488;0.152;2022-12-08T14:27:17;13.48;;;6.60;;
29730;SDS011;16639;51.488;0.152;2022-12-08T14:35:26;14.60;;;6.70;;
29730;SDS011;16639;51.488;0.152;2022-12-08T14:38:02;14.18;;;6.63;;
29730;SDS011;16639;51.488;0.152;2022-12-08T14:40:38;13.90;;;6.70;;
29730;SDS011;16639;51.488;0.152;2022-12-08T14:51:12;17.95;;;6.75;;
29730;SDS011;16639;51.488;0.152;2022-12-08T14:56:20;17.63;;;7.68;;
29730;SDS011;16639;51.488;0.152;2022-12-08T15:01:35;17.45;;;7.25;;
29730;SDS011;16639;51.488;0.152;2022-12-08T15:04:07;17.88;;;6.95;;
29730;SDS011;16639;51.488;0.152;2022-12-08T15:06:50;14.02;;;6.85;;
29730;SDS011;16639;51.488;0.152;2022-12-08T15:09:47;14.20;;;6.75;;
29730;SDS011;16639;51.488;0.152;2022-12-08T15:12:31;19.75;;;7.30;;
29730;SDS011;16639;51.488;0.152;2022-12-08T15:15:14;12.80;;;6.78;;
29730;SDS011;16639;51.488;0.152;2022-12-08T15:23:01;21.20;;;6.97;;
29730;SDS011;16639;51.488;0.152;2022-12-08T15:25:29;18.60;;;6.78;;
29730;SDS011;16639;51.488;0.152;2022-12-08T15:27:57;17.27;;;6.78;;
29730;SDS011;16639;51.488;0.152;2022-12-08T15:30:24;21.92;;;7.57;;
29730;SDS011;16639;51.488;0.152;2022-12-08T15:32:52;14.05;;;6.07;;
29730;SDS011;16639;51.488;0.152;2022-12-08T15:35:21;9.25;;;6.40;;
29730;SDS011;16639;51.488;0.152;2022-12-08T15:37:49;17.25;;;5.70;;
29730;SDS011;16639;51.488;0.152;2022-12-08T15:40:20;12.88;;;4.97;;
29730;SDS011;16639;51.488;0.152;2022-12-08T15:42:48;12.63;;;5.07;;
29730;SDS011;16639;51.488;0.152;2022-12-08T15:45:16;14.25;;;5.32;;
29730;SDS011;16639;51.488;0.152;2022-12-08T15:47:44;13.00;;;5.60;;
29730;SDS011;16639;51.488;0.152;2022-12-08T15:50:15;10.75;;;6.28;;
29730;SDS011;16639;51.488;0.152;2022-12-08T15:52:45;14.18;;;6.38;;
29730;SDS011;16639;51.488;0.152;2022-12-08T15:55:13;13.00;;;5.53;;
29730;SDS011;16639;51.488;0.152;2022-12-08T15:57:42;25.23;;;7.60;;
29730;SDS011;16639;51.488;0.152;2022-12-08T16:00:32;17.80;;;6.15;;
29730;SDS011;16639;51.488;0.152;2022-12-08T16:03:24;12.57;;;6.35;;
29730;SDS011;16639;51.488;0.152;2022-12-08T16:06:16;13.98;;;6.53;;
29730;SDS011;16639;51.488;0.152;2022-12-08T16:09:07;15.52;;;6.70;;
29730;SDS011;16639;51.488;0.152;2022-12-08T16:11:49;13.98;;;6.20;;
29730;SDS011;16639;51.488;0.152;2022-12-08T16:14:36;16.60;;;6.78;;
29730;SDS011;16639;51.488;0.152;2022-12-08T16:17:24;16.92;;;6.57;;
29730;SDS011;16639;51.488;0.152;2022-12-08T16:19:52;10.90;;;5.78;;
29730;SDS011;16639;51.488;0.152;2022-12-08T16:22:21;13.93;;;5.68;;
29730;SDS011;16639;51.488;0.152;2022-12-08T16:25:10;12.38;;;6.78;;
29730;SDS011;16639;51.488;0.152;2022-12-08T16:27:49;10.68;;;5.85;;
29730;SDS011;16639;51.488;0.152;2022-12-08T16:30:38;16.50;;;6.50;;
29730;SDS011;16639;51.488;0.152;2022-12-08T16:33:06;19.77;;;6.85;;
29730;SDS011;16639;51.488;0.152;2022-12-08T16:35:33;16.73;;;6.95;;
29730;SDS011;16639;51.488;0.152;2022-12-08T16:38:00;18.23;;;6.65;;
29730;SDS011;16639;51.488;0.152;2022-12-08T16:40:28;15.00;;;7.20;;
29730;SDS011;16639;51.488;0.152;2022-12-08T16:42:55;21.63;;;6.43;;
29730;SDS011;16639;51.488;0.152;2022-12-08T16:45:24;20.73;;;7.28;;
29730;SDS011;16639;51.488;0.152;2022-12-08T16:47:57;13.80;;;6.95;;
29730;SDS011;16639;51.488;0.152;2022-12-08T16:50:28;15.63;;;7.10;;
29730;SDS011;16639;51.488;0.152;2022-12-08T16:52:58;16.02;;;7.85;;
29730;SDS011;16639;51.488;0.152;2022-12-08T16:55:32;16.98;;;7.35;;
29730;SDS011;16639;51.488;0.152;2022-12-08T16:58:00;15.40;;;6.53;;
29730;SDS011;16639;51.488;0.152;2022-12-08T17:00:31;13.82;;;6.50;;
29730;SDS011;16639;51.488;0.152;2022-12-08T17:03:03;24.02;;;8.73;;
29730;SDS011;16639;51.488;0.152;2022-12-08T17:05:31;16.27;;;8.85;;